KMLI/MLI METAR and TAF weather

Enter ICAO airport designator
Station Type Date Time Source
KMLI METAR 2020/08/11 00:52 UTC NOAA

KMLI 110052Z A2989 RMK AO2 SLPNO $


Station Type Date Time Source
KMLI Decoded METAR 2020/08/11 00:52 UTC NOAA

MOLINE QUAD-CITY AIRPORT, IL, United States (KMLI) 41-27N 90-31W 184M
Aug 10, 2020 - 08:52 PM EDT / 2020.08.11 0052 UTC
Pressure (altimeter): 29.89 in. Hg (1012 hPa)
ob: KMLI 110052Z A2989 RMK AO2 SLPNO
cycle: 1

Station Type Date Time Source
KMLI TAF 2020/08/10 22:16 UTC NOAA

TAF
AMD KMLI 102214Z 1022/1118 14008KT P6SM SCT100 OVC250
FM110100 VRB03KT P6SM SCT250
AMD NOT SKED

Example: see airport list